Time;durP1;ratioP1;P1;durP2;ratioP2;P2;SDS_P1;SDS_P2;PMS_P1;PMS_P2;Temp;Humidity;BMP_temperature;BMP_pressure;BME280_temperature;BME280_humidity;BME280_pressure;Samples;Min_cycle;Max_cycle;Signal;HPM_P1;HPM_P2
2024/01/27 00:00:02;;;;;;;25.40;7.63;;;;;;;-144.26;100.00;64884.69;5013332;28;20113;-78
2024/01/27 00:02:27;;;;;;;23.30;8.05;;;;;;;-144.26;100.00;64884.69;5013114;28;20033;-78
2024/01/27 00:04:52;;;;;;;24.30;9.82;;;;;;;-144.26;100.00;64884.69;5012418;28;20029;-78
2024/01/27 00:07:18;;;;;;;21.92;7.97;;;;;;;-144.26;100.00;64884.69;5012975;28;20083;-78
2024/01/27 00:09:43;;;;;;;28.02;9.55;;;;;;;-144.26;100.00;64884.69;5013104;28;20109;-78
2024/01/27 00:12:08;;;;;;;19.77;7.68;;;;;;;-144.26;100.00;64884.69;5013184;28;20037;-79
2024/01/27 00:14:38;;;;;;;17.95;7.72;;;;;;;-144.26;100.00;64884.69;5012748;28;20363;-78
2024/01/27 00:17:03;;;;;;;23.23;8.48;;;;;;;-144.26;100.00;64884.69;4995018;28;20478;-79
2024/01/27 00:19:29;;;;;;;23.67;9.20;;;;;;;-144.26;100.00;64884.69;5013119;28;20084;-78
2024/01/27 00:21:54;;;;;;;21.38;8.63;;;;;;;-144.26;100.00;64884.69;5013086;28;20030;-78
2024/01/27 00:24:19;;;;;;;22.58;8.93;;;;;;;-144.26;100.00;64884.69;5012845;28;20065;-77
2024/01/27 00:26:45;;;;;;;21.90;8.52;;;;;;;-144.26;100.00;64884.69;5013076;28;20026;-78
2024/01/27 00:29:10;;;;;;;20.88;8.45;;;;;;;-144.26;100.00;64884.69;4995015;28;20386;-78
2024/01/27 00:31:36;;;;;;;21.85;8.40;;;;;;;-144.26;100.00;64884.69;5013090;28;20033;-79
2024/01/27 00:34:01;;;;;;;22.58;8.95;;;;;;;-144.26;100.00;64884.69;5012719;28;20026;-78
2024/01/27 00:36:27;;;;;;;18.35;8.02;;;;;;;-144.26;100.00;64884.69;5012881;28;20014;-79
2024/01/27 00:38:52;;;;;;;22.15;9.88;;;;;;;-144.26;100.00;64884.69;5012685;28;20026;-78
2024/01/27 00:41:18;;;;;;;25.35;9.98;;;;;;;-144.26;100.00;64884.69;5013047;28;20356;-80
2024/01/27 00:43:43;;;;;;;23.27;9.05;;;;;;;-144.26;100.00;64884.69;5012604;28;20034;-80
2024/01/27 00:46:08;;;;;;;24.90;9.65;;;;;;;-144.26;100.00;64884.69;4995016;28;20091;-79
2024/01/27 00:48:34;;;;;;;23.77;9.15;;;;;;;-144.26;100.00;64884.69;5012758;28;20018;-80
2024/01/27 00:50:59;;;;;;;21.80;9.02;;;;;;;-144.26;100.00;64884.69;5012847;28;20022;-80
2024/01/27 00:53:24;;;;;;;21.67;7.72;;;;;;;-144.26;100.00;64884.69;5012522;28;20121;-77
2024/01/27 00:55:50;;;;;;;20.85;8.40;;;;;;;-144.26;100.00;64884.69;5012569;28;20022;-77
2024/01/27 00:58:16;;;;;;;20.45;7.90;;;;;;;-144.26;100.00;64884.69;5012724;28;20101;-77
2024/01/27 01:00:41;;;;;;;18.60;7.28;;;;;;;-144.26;100.00;64884.69;5012389;28;20034;-79
2024/01/27 01:03:06;;;;;;;17.92;7.68;;;;;;;-144.26;100.00;64884.69;5012566;28;20183;-80
2024/01/27 01:05:32;;;;;;;17.30;7.60;;;;;;;-144.26;100.00;64884.69;5012376;28;20026;-80
2024/01/27 01:07:57;;;;;;;22.20;8.23;;;;;;;-144.26;100.00;64884.69;5012545;28;20022;-80
2024/01/27 01:10:23;;;;;;;19.80;7.72;;;;;;;-144.26;100.00;64884.69;5012225;28;20026;-80
2024/01/27 01:12:48;;;;;;;20.08;7.47;;;;;;;-144.26;100.00;64884.69;5012617;28;20049;-80
2024/01/27 01:15:13;;;;;;;17.05;7.60;;;;;;;-144.26;100.00;64884.69;5012263;28;20061;-80
2024/01/27 01:17:39;;;;;;;18.27;8.02;;;;;;;-144.26;100.00;64884.69;5015133;28;20053;-80
2024/01/27 01:20:05;;;;;;;24.17;7.50;;;;;;;-144.26;100.00;64884.69;5016195;28;20037;-80
2024/01/27 01:22:31;;;;;;;20.38;7.57;;;;;;;-144.26;100.00;64884.69;5016338;28;20131;-80
2024/01/27 01:24:56;;;;;;;17.20;8.10;;;;;;;-144.26;100.00;64884.69;5015943;28;20045;-81
2024/01/27 01:27:21;;;;;;;21.15;8.77;;;;;;;-144.26;100.00;64884.69;5016156;28;20026;-80
2024/01/27 01:29:47;;;;;;;24.42;8.48;;;;;;;-144.26;100.00;64884.69;5015944;28;20072;-81
2024/01/27 01:32:12;;;;;;;20.50;8.90;;;;;;;-144.26;100.00;64884.69;5015753;28;20034;-80
2024/01/27 01:34:38;;;;;;;19.63;7.80;;;;;;;-144.26;100.00;64884.69;5015934;28;20109;-80
2024/01/27 01:37:03;;;;;;;21.60;8.20;;;;;;;-144.26;100.00;64884.69;5015862;28;20052;-80
2024/01/27 01:39:29;;;;;;;23.02;8.77;;;;;;;-144.26;100.00;64884.69;5015563;28;20470;-80
2024/01/27 01:41:54;;;;;;;21.90;9.32;;;;;;;-144.26;100.00;64884.69;5015690;28;20026;-80
2024/01/27 01:44:20;;;;;;;21.48;8.63;;;;;;;-144.26;100.00;64884.69;5015500;28;20111;-80
2024/01/27 01:46:45;;;;;;;17.33;8.27;;;;;;;-144.26;100.00;64884.69;4996968;28;20088;-80
2024/01/27 01:49:11;;;;;;;21.60;8.93;;;;;;;-144.26;100.00;64884.69;5015532;28;20032;-80
2024/01/27 01:51:36;;;;;;;23.67;8.43;;;;;;;-144.26;100.00;64884.69;5014723;28;20147;-80
2024/01/27 01:54:02;;;;;;;22.13;9.52;;;;;;;-144.26;100.00;64884.69;5015457;28;20065;-80
2024/01/27 01:56:28;;;;;;;18.52;8.73;;;;;;;-144.26;100.00;64884.69;5015580;28;20065;-80
2024/01/27 01:58:57;;;;;;;27.23;8.95;;;;;;;-144.26;100.00;64884.69;5015328;28;20032;-81
2024/01/27 02:01:22;;;;;;;20.17;8.70;;;;;;;-144.26;100.00;64884.69;5015370;28;20421;-81
2024/01/27 02:03:54;;;;;;;19.38;8.88;;;;;;;-144.26;100.00;64884.69;5015617;28;20100;-81
2024/01/27 02:06:20;;;;;;;17.55;9.00;;;;;;;-144.26;100.00;64884.69;5015309;28;20026;-80
2024/01/27 02:08:46;;;;;;;23.88;9.20;;;;;;;-144.26;100.00;64884.69;5015180;28;20040;-81
2024/01/27 02:11:11;;;;;;;18.20;9.05;;;;;;;-144.26;100.00;64884.69;5015108;28;20030;-80
2024/01/27 02:13:37;;;;;;;22.50;9.73;;;;;;;-144.26;100.00;64884.69;5014951;28;20030;-79
2024/01/27 02:19:21;;;;;;;25.42;10.10;;;;;;;-144.26;100.00;64884.69;5744758;23;20064;-80
2024/01/27 02:21:46;;;;;;;28.10;11.30;;;;;;;-144.26;100.00;64884.69;5016961;28;20086;-80
2024/01/27 02:24:12;;;;;;;22.17;10.95;;;;;;;-144.26;100.00;64884.69;5034762;28;20120;-80
2024/01/27 02:26:37;;;;;;;29.58;11.15;;;;;;;-144.26;100.00;64884.69;5034850;28;20026;-81
2024/01/27 02:29:02;;;;;;;25.88;10.23;;;;;;;-144.26;100.00;64884.69;5033839;28;20036;-80
2024/01/27 02:31:28;;;;;;;23.27;10.38;;;;;;;-144.26;100.00;64884.69;5016419;28;20037;-81
2024/01/27 02:33:53;;;;;;;24.55;10.30;;;;;;;-144.26;100.00;64884.69;5034546;28;20536;-80
2024/01/27 02:36:19;;;;;;;21.38;11.43;;;;;;;-144.26;100.00;64884.69;5034668;28;20461;-81
2024/01/27 02:38:44;;;;;;;24.40;10.55;;;;;;;-144.26;100.00;64884.69;5034485;28;20033;-81
2024/01/27 02:41:11;;;;;;;23.38;10.80;;;;;;;-144.26;100.00;64884.69;5034551;28;20033;-81
2024/01/27 02:43:36;;;;;;;20.73;9.90;;;;;;;-144.26;100.00;64884.69;5034504;28;20465;-81
2024/01/27 02:46:02;;;;;;;20.77;10.38;;;;;;;-144.26;100.00;64884.69;5016706;28;20040;-81
2024/01/27 02:48:27;;;;;;;21.83;10.82;;;;;;;-144.26;100.00;64884.69;5034481;28;20022;-81
2024/01/27 02:50:52;;;;;;;18.52;10.05;;;;;;;-144.26;100.00;64884.69;5034384;28;20060;-81
2024/01/27 02:53:18;;;;;;;26.33;11.68;;;;;;;-144.26;100.00;64884.69;5034139;28;20480;-81
2024/01/27 02:55:44;;;;;;;23.48;11.07;;;;;;;-144.26;100.00;64884.69;5034083;28;20029;-80
2024/01/27 02:58:09;;;;;;;23.48;11.30;;;;;;;-144.26;100.00;64884.69;5034452;28;20091;-80
2024/01/27 03:00:34;;;;;;;24.02;11.18;;;;;;;-144.26;100.00;64884.69;5033992;28;20101;-80
2024/01/27 03:03:00;;;;;;;26.42;12.65;;;;;;;-144.26;100.00;64884.69;5033850;28;20400;-80
2024/01/27 03:05:25;;;;;;;27.00;12.20;;;;;;;-144.26;100.00;64884.69;5034033;28;20025;-80
2024/01/27 03:07:50;;;;;;;26.02;11.65;;;;;;;-144.26;100.00;64884.69;5034129;28;20431;-80
2024/01/27 03:10:16;;;;;;;27.63;11.77;;;;;;;-144.26;100.00;64884.69;5033846;28;20053;-80
2024/01/27 03:12:41;;;;;;;21.35;11.32;;;;;;;-144.26;100.00;64884.69;5033759;28;20037;-80
2024/01/27 03:15:07;;;;;;;23.55;12.30;;;;;;;-144.26;100.00;64884.69;5034114;28;20025;-80
2024/01/27 03:17:33;;;;;;;26.25;11.77;;;;;;;-144.26;100.00;64884.69;5033496;28;20021;-80
2024/01/27 03:19:58;;;;;;;29.88;12.60;;;;;;;-144.26;100.00;64884.69;5033614;28;20128;-80
2024/01/27 03:22:23;;;;;;;21.50;11.73;;;;;;;-144.26;100.00;64884.69;5033687;28;20389;-79
2024/01/27 03:24:51;;;;;;;23.08;12.70;;;;;;;-144.26;100.00;64884.69;5015788;28;20033;-80
2024/01/27 03:27:16;;;;;;;24.10;11.57;;;;;;;-144.26;100.00;64884.69;5033592;28;20113;-80
2024/01/27 03:29:42;;;;;;;28.80;12.30;;;;;;;-144.26;100.00;64884.69;5033649;28;20112;-80
2024/01/27 03:32:07;;;;;;;27.23;12.68;;;;;;;-144.26;100.00;64884.69;5033337;28;20026;-80
2024/01/27 03:34:32;;;;;;;19.63;11.65;;;;;;;-144.26;100.00;64884.69;5033441;28;20451;-80
2024/01/27 03:36:58;;;;;;;26.63;13.57;;;;;;;-144.26;100.00;64884.69;5033518;28;20029;-80
2024/01/27 03:39:23;;;;;;;27.92;13.15;;;;;;;-144.26;100.00;64884.69;5033330;28;20029;-80
2024/01/27 03:41:48;;;;;;;24.65;12.25;;;;;;;-144.26;100.00;64884.69;5015061;28;20048;-81
2024/01/27 03:44:13;;;;;;;24.30;12.18;;;;;;;-144.26;100.00;64884.69;5015486;28;20025;-80
2024/01/27 03:46:39;;;;;;;23.35;13.18;;;;;;;-144.26;100.00;64884.69;5033261;28;20377;-80
2024/01/27 03:49:04;;;;;;;24.55;12.68;;;;;;;-144.26;100.00;64884.69;5033304;28;20022;-80
2024/01/27 03:51:30;;;;;;;25.35;13.88;;;;;;;-144.26;100.00;64884.69;5033132;28;20091;-80
2024/01/27 03:53:55;;;;;;;21.10;11.77;;;;;;;-144.26;100.00;64884.69;5033102;28;20080;-80
2024/01/27 03:56:20;;;;;;;25.20;13.07;;;;;;;-144.26;100.00;64884.69;5033090;28;20037;-80
2024/01/27 03:58:46;;;;;;;22.48;12.68;;;;;;;-144.26;100.00;64884.69;5032852;28;20033;-80
2024/01/27 04:01:11;;;;;;;28.73;13.30;;;;;;;-144.26;100.00;64884.69;5032973;28;20044;-79
2024/01/27 04:03:36;;;;;;;24.45;12.70;;;;;;;-144.26;100.00;64884.69;5015151;28;20044;-80
2024/01/27 04:06:02;;;;;;;25.58;12.35;;;;;;;-144.26;100.00;64884.69;5033033;28;20458;-80
2024/01/27 04:08:29;;;;;;;21.27;12.52;;;;;;;-144.26;100.00;64884.69;5032886;28;20052;-80
2024/01/27 04:10:55;;;;;;;21.55;12.23;;;;;;;-144.26;100.00;64884.69;5033270;28;20473;-78
2024/01/27 04:13:20;;;;;;;22.60;12.88;;;;;;;-144.26;100.00;64884.69;5032421;28;20068;-80
2024/01/27 04:15:45;;;;;;;23.67;12.32;;;;;;;-144.26;100.00;64884.69;5032789;28;20033;-79
2024/01/27 04:18:11;;;;;;;23.60;12.43;;;;;;;-144.26;100.00;64884.69;5032499;28;20107;-79
2024/01/27 04:20:37;;;;;;;24.08;12.52;;;;;;;-144.26;100.00;64884.69;5032787;28;20075;-80
2024/01/27 04:23:03;;;;;;;23.13;13.18;;;;;;;-144.26;100.00;64884.69;5032682;28;20429;-80
2024/01/27 04:25:29;;;;;;;21.40;12.75;;;;;;;-144.26;100.00;64884.69;5032621;28;20022;-80
2024/01/27 04:27:54;;;;;;;22.73;13.57;;;;;;;-144.26;100.00;64884.69;5032349;28;20120;-79
2024/01/27 04:30:20;;;;;;;22.65;12.35;;;;;;;-144.26;100.00;64884.69;5032605;28;20032;-79
2024/01/27 04:32:45;;;;;;;27.67;12.63;;;;;;;-144.26;100.00;64884.69;5014393;28;20072;-79
2024/01/27 04:35:12;;;;;;;24.80;12.57;;;;;;;-144.26;100.00;64884.69;5014519;28;20045;-79
2024/01/27 04:37:37;;;;;;;22.02;12.27;;;;;;;-144.26;100.00;64884.69;5032748;28;20026;-80
2024/01/27 04:40:07;;;;;;;22.58;13.05;;;;;;;-144.26;100.00;64884.69;5032369;28;20037;-80
2024/01/27 04:42:37;;;;;;;22.17;12.65;;;;;;;-144.26;100.00;64884.69;5032280;28;20495;-80
2024/01/27 04:45:04;;;;;;;29.52;14.40;;;;;;;-144.26;100.00;64884.69;5032574;28;20033;-79
2024/01/27 04:47:30;;;;;;;23.23;13.75;;;;;;;-144.26;100.00;64884.69;5032253;28;20021;-79
2024/01/27 04:49:55;;;;;;;23.83;13.25;;;;;;;-144.26;100.00;64884.69;5032559;28;20388;-78
2024/01/27 04:52:21;;;;;;;22.85;13.32;;;;;;;-144.26;100.00;64884.69;5034602;28;20036;-79
2024/01/27 04:54:46;;;;;;;24.67;13.57;;;;;;;-144.26;100.00;64884.69;5036530;28;20465;-79
2024/01/27 04:57:11;;;;;;;21.35;13.25;;;;;;;-144.26;100.00;64884.69;5036401;28;20030;-78
2024/01/27 04:59:37;;;;;;;27.35;13.68;;;;;;;-144.26;100.00;64884.69;5036138;28;20036;-80
2024/01/27 05:02:02;;;;;;;26.63;14.05;;;;;;;-144.26;100.00;64884.69;5036433;28;20026;-80
2024/01/27 05:04:27;;;;;;;24.63;14.63;;;;;;;-144.26;100.00;64884.69;5036292;28;20108;-80
2024/01/27 05:06:53;;;;;;;25.60;14.45;;;;;;;-144.26;100.00;64884.69;5036482;28;20495;-80
2024/01/27 05:09:18;;;;;;;27.17;13.65;;;;;;;-144.26;100.00;64884.69;5036194;28;20025;-80
2024/01/27 05:11:45;;;;;;;26.10;14.70;;;;;;;-144.26;100.00;64884.69;5036141;28;20072;-79
2024/01/27 05:14:11;;;;;;;25.80;14.43;;;;;;;-144.26;100.00;64884.69;5036025;28;20045;-79
2024/01/27 05:16:37;;;;;;;24.20;14.43;;;;;;;-144.26;100.00;64884.69;5036208;28;20033;-79
2024/01/27 05:19:02;;;;;;;24.10;14.50;;;;;;;-144.26;100.00;64884.69;5035635;28;20095;-77
2024/01/27 05:21:27;;;;;;;26.80;14.32;;;;;;;-144.26;100.00;64884.69;5035906;28;20025;-79
2024/01/27 05:24:05;;;;;;;24.13;14.60;;;;;;;-144.26;100.00;64884.69;5287226;23;20468;-78
2024/01/27 05:29:16;;;;;;;22.80;13.85;;;;;;;-144.26;100.00;64884.69;5036140;28;20076;-79
2024/01/27 05:31:47;;;;;;;23.13;14.57;;;;;;;-144.26;100.00;64884.69;5035667;28;20536;-79
2024/01/27 05:34:16;;;;;;;29.98;14.80;;;;;;;-144.26;100.00;64884.69;5033160;28;20034;-79
2024/01/27 05:37:13;;;;;;;25.50;14.45;;;;;;;-144.26;100.00;64884.69;5035556;28;20461;-79
2024/01/27 05:39:39;;;;;;;25.55;15.32;;;;;;;-144.26;100.00;64884.69;5003372;28;20061;-80
2024/01/27 05:42:07;;;;;;;27.00;16.05;;;;;;;-144.26;100.00;64884.69;5035861;28;20100;-79
2024/01/27 05:44:33;;;;;;;27.23;15.52;;;;;;;-144.26;100.00;64884.69;5035677;28;20025;-79
2024/01/27 05:47:04;;;;;;;29.65;15.73;;;;;;;-144.26;100.00;64884.69;5017509;28;20091;-79
2024/01/27 05:49:42;;;;;;;24.15;14.73;;;;;;;-144.26;100.00;64884.69;5035431;28;20335;-78
2024/01/27 05:52:07;;;;;;;24.73;15.57;;;;;;;-144.26;100.00;64884.69;5035150;28;20083;-79
2024/01/27 05:54:33;;;;;;;27.90;16.63;;;;;;;-144.26;100.00;64884.69;5035356;28;20026;-79
2024/01/27 05:57:13;;;;;;;27.85;15.52;;;;;;;-144.26;100.00;64884.69;5001305;28;20022;-78
2024/01/27 05:59:42;;;;;;;30.88;16.60;;;;;;;-144.26;100.00;64884.69;5035280;28;20060;-78
2024/01/27 06:02:27;;;;;;;28.17;16.58;;;;;;;-144.26;100.00;64884.69;5035266;28;20095;-78
2024/01/27 06:04:52;;;;;;;31.33;16.95;;;;;;;-144.26;100.00;64884.69;5035103;28;20477;-79
2024/01/27 06:07:18;;;;;;;26.25;16.48;;;;;;;-144.26;100.00;64884.69;5035175;28;20031;-79
2024/01/27 06:10:20;;;;;;;24.33;15.93;;;;;;;-144.26;100.00;64884.69;5035145;28;20022;-78
2024/01/27 06:13:01;;;;;;;26.50;16.85;;;;;;;-144.26;100.00;64884.69;5017320;28;20044;-79
2024/01/27 06:15:30;;;;;;;32.38;15.95;;;;;;;-144.26;100.00;64884.69;5034125;28;20125;-78
2024/01/27 06:18:11;;;;;;;31.27;17.40;;;;;;;-144.26;100.00;64884.69;5034932;28;20018;-78
2024/01/27 06:21:08;;;;;;;27.90;16.65;;;;;;;-144.26;100.00;64884.69;5034544;28;20037;-79
2024/01/27 06:23:34;;;;;;;29.30;16.95;;;;;;;-144.26;100.00;64884.69;5016852;28;20096;-78
2024/01/27 06:26:09;;;;;;;26.15;17.17;;;;;;;-144.26;100.00;64884.69;4997369;28;20033;-78
2024/01/27 06:28:36;;;;;;;31.95;18.88;;;;;;;-144.26;100.00;64884.69;5014706;28;20022;-78
2024/01/27 06:31:02;;;;;;;31.25;17.33;;;;;;;-144.26;100.00;64884.69;5015126;28;20096;-79
2024/01/27 06:33:46;;;;;;;31.15;17.00;;;;;;;-144.26;100.00;64884.69;5014564;28;20042;-78
2024/01/27 06:36:18;;;;;;;28.35;17.00;;;;;;;-144.26;100.00;64884.69;5014762;28;20024;-78
2024/01/27 06:38:52;;;;;;;;;;;;;;;-144.26;100.00;64884.69;5015461;28;20028;-78
2024/01/27 06:41:44;;;;;;;28.20;17.90;;;;;;;-144.26;100.00;64884.69;4997253;28;19913;-79
2024/01/27 06:44:15;;;;;;;26.17;16.77;;;;;;;-144.26;100.00;64884.69;5014244;28;20045;-78
2024/01/27 06:46:49;;;;;;;29.38;16.95;;;;;;;-144.26;100.00;64884.69;5014430;28;20311;-79
2024/01/27 06:49:16;;;;;;;25.90;16.13;;;;;;;-144.26;100.00;64884.69;5013925;28;20117;-79
2024/01/27 06:51:41;;;;;;;24.80;16.92;;;;;;;-144.26;100.00;64884.69;5014670;28;20037;-79
2024/01/27 06:54:07;;;;;;;30.17;16.67;;;;;;;-144.26;100.00;64884.69;5014463;28;20021;-79
2024/01/27 06:56:32;;;;;;;30.15;18.25;;;;;;;-144.26;100.00;64884.69;5014532;28;20397;-79
2024/01/27 06:58:57;;;;;;;26.58;17.63;;;;;;;-144.26;100.00;64884.69;5014407;28;20488;-79
2024/01/27 07:01:23;;;;;;;27.42;18.58;;;;;;;-144.26;100.00;64884.69;5014771;28;20450;-79
2024/01/27 07:03:48;;;;;;;29.95;18.98;;;;;;;-144.26;100.00;64884.69;5014513;28;20044;-77
2024/01/27 07:06:13;;;;;;;33.50;19.52;;;;;;;-144.26;100.00;64884.69;5014147;28;20037;-77
2024/01/27 07:08:39;;;;;;;33.20;19.45;;;;;;;-144.26;100.00;64884.69;5013833;28;20037;-79
2024/01/27 07:11:04;;;;;;;32.90;20.50;;;;;;;-144.26;100.00;64884.69;5014146;28;20111;-77
2024/01/27 07:13:30;;;;;;;34.30;20.48;;;;;;;-144.26;100.00;64884.69;5014121;28;20037;-77
2024/01/27 07:15:56;;;;;;;35.53;21.25;;;;;;;-144.26;100.00;64884.69;5013319;28;20026;-77
2024/01/27 07:18:22;;;;;;;33.65;21.45;;;;;;;-144.26;100.00;64884.69;5014059;28;20038;-78
2024/01/27 07:20:47;;;;;;;35.70;21.77;;;;;;;-144.26;100.00;64884.69;5013753;28;20156;-77
2024/01/27 07:23:13;;;;;;;31.55;21.98;;;;;;;-144.26;100.00;64884.69;5014036;28;20032;-77
2024/01/27 07:25:38;;;;;;;33.38;21.02;;;;;;;-144.26;100.00;64884.69;5030530;28;20049;-77
2024/01/27 07:28:04;;;;;;;27.60;19.98;;;;;;;-144.26;100.00;64884.69;5033649;28;20052;-77
2024/01/27 07:30:30;;;;;;;33.45;20.55;;;;;;;-144.26;100.00;64884.69;5033525;28;20021;-77
2024/01/27 07:32:56;;;;;;;34.75;21.35;;;;;;;-144.26;100.00;64884.69;5033218;28;20033;-77
2024/01/27 07:35:21;;;;;;;36.55;20.75;;;;;;;-144.26;100.00;64884.69;5033364;28;20029;-77
2024/01/27 07:37:46;;;;;;;35.53;21.00;;;;;;;-144.26;100.00;64884.69;5032114;28;20057;-75
2024/01/27 07:40:12;;;;;;;30.13;21.67;;;;;;;-144.26;100.00;64884.69;5033931;28;20025;-75
2024/01/27 07:42:37;;;;;;;38.40;21.58;;;;;;;-144.26;100.00;64884.69;5033519;28;20056;-75
2024/01/27 07:45:03;;;;;;;30.67;21.02;;;;;;;-144.26;100.00;64884.69;5033065;28;20029;-75
2024/01/27 07:47:28;;;;;;;38.03;21.90;;;;;;;-144.26;100.00;64884.69;5032997;28;20426;-76
2024/01/27 07:49:54;;;;;;;29.00;21.88;;;;;;;-144.26;100.00;64884.69;5033040;28;20084;-75
2024/01/27 07:52:19;;;;;;;33.65;21.27;;;;;;;-144.26;100.00;64884.69;5033084;28;20116;-75
2024/01/27 07:54:46;;;;;;;35.67;21.20;;;;;;;-144.26;100.00;64884.69;5032936;28;20362;-77
2024/01/27 07:57:24;;;;;;;30.98;19.73;;;;;;;-144.26;100.00;64884.69;5033088;28;20025;-77
2024/01/27 07:59:49;;;;;;;31.35;19.95;;;;;;;-144.26;100.00;64884.69;5032731;28;20438;-78
2024/01/27 08:02:15;;;;;;;31.08;19.27;;;;;;;-144.26;100.00;64884.69;5014981;28;20064;-78
2024/01/27 08:04:40;;;;;;;32.55;19.77;;;;;;;-144.26;100.00;64884.69;5032818;28;20025;-78
2024/01/27 08:07:09;;;;;;;31.50;20.83;;;;;;;-144.26;100.00;64884.69;5032675;28;20079;-77
2024/01/27 08:09:35;;;;;;;31.27;20.13;;;;;;;-144.26;100.00;64884.69;5032791;28;20037;-75
2024/01/27 08:12:01;;;;;;;35.25;20.90;;;;;;;-144.26;100.00;64884.69;5032588;28;20540;-78
2024/01/27 08:14:29;;;;;;;32.47;20.73;;;;;;;-144.26;100.00;64884.69;5032728;28;20029;-79
2024/01/27 08:16:55;;;;;;;35.22;19.48;;;;;;;-144.26;100.00;64884.69;5032547;28;20025;-78
2024/01/27 08:19:20;;;;;;;28.10;19.50;;;;;;;-144.26;100.00;64884.69;5032792;28;20029;-78
2024/01/27 08:21:47;;;;;;;31.45;19.45;;;;;;;-144.26;100.00;64884.69;5032280;28;20035;-79
2024/01/27 08:24:15;;;;;;;33.10;18.98;;;;;;;-144.26;100.00;64884.69;5032636;28;20068;-80
2024/01/27 08:26:42;;;;;;;31.75;19.95;;;;;;;-144.26;100.00;64884.69;5031632;28;20030;-79
2024/01/27 08:29:08;;;;;;;29.58;19.40;;;;;;;-144.26;100.00;64884.69;5017036;28;20041;-78
2024/01/27 08:31:33;;;;;;;32.30;19.92;;;;;;;-144.26;100.00;64884.69;5013249;28;20064;-80
2024/01/27 08:33:58;;;;;;;28.00;18.73;;;;;;;-144.26;100.00;64884.69;4994646;28;20073;-79
2024/01/27 08:36:24;;;;;;;33.28;18.08;;;;;;;-144.26;100.00;64884.69;4994845;28;20467;-78
2024/01/27 08:38:49;;;;;;;32.20;18.95;;;;;;;-144.26;100.00;64884.69;5012510;28;20104;-78
2024/01/27 08:41:14;;;;;;;29.10;18.60;;;;;;;-144.26;100.00;64884.69;5012771;28;20393;-80
2024/01/27 08:43:40;;;;;;;29.27;17.45;;;;;;;-144.26;100.00;64884.69;5012651;28;20037;-81
2024/01/27 08:46:11;;;;;;;33.70;18.80;;;;;;;-144.26;100.00;64884.69;5012554;28;20033;-81
2024/01/27 08:48:36;;;;;;;28.77;17.77;;;;;;;-144.26;100.00;64884.69;5012297;28;20057;-82
2024/01/27 08:53:49;;;;;;;26.27;15.63;;;;;;;-144.26;100.00;64884.69;5050543;28;20052;-81
2024/01/27 08:56:24;;;;;;;27.52;17.15;;;;;;;-144.26;100.00;64884.69;5052297;28;20017;-81
2024/01/27 08:58:54;;;;;;;36.33;17.05;;;;;;;-144.26;100.00;64884.69;5052031;28;20051;-81
2024/01/27 09:02:10;;;;;;;27.58;16.67;;;;;;;-144.26;100.00;64884.69;5052114;28;20033;-81
2024/01/27 09:04:42;;;;;;;27.63;16.75;;;;;;;-144.26;100.00;64884.69;5050856;28;20056;-81
2024/01/27 09:07:48;;;;;;;30.48;17.63;;;;;;;-144.26;100.00;64884.69;5033956;28;20021;-81
2024/01/27 09:10:31;;;;;;;28.42;18.15;;;;;;;-144.26;100.00;64884.69;5052243;28;20029;-81
2024/01/27 09:12:57;;;;;;;26.95;16.75;;;;;;;-144.26;100.00;64884.69;5052040;28;20032;-81
2024/01/27 09:15:25;;;;;;;28.58;15.75;;;;;;;-144.26;100.00;64884.69;5052056;28;20397;-81
2024/01/27 09:17:51;;;;;;;26.35;15.55;;;;;;;-144.26;100.00;64884.69;5051870;28;20052;-82
2024/01/27 09:20:53;;;;;;;26.80;16.13;;;;;;;-144.26;100.00;64884.69;5052187;28;20025;-80
2024/01/27 09:23:21;;;;;;;31.48;14.95;;;;;;;-144.26;100.00;64884.69;5051640;28;20040;-81
2024/01/27 09:25:47;;;;;;;28.00;15.57;;;;;;;-144.26;100.00;64884.69;5051969;28;20021;-81
2024/01/27 09:28:12;;;;;;;28.67;16.33;;;;;;;-144.26;100.00;64884.69;5051830;28;20523;-81
2024/01/27 09:30:38;;;;;;;30.85;15.45;;;;;;;-144.26;100.00;64884.69;5051466;28;20036;-81
2024/01/27 09:33:03;;;;;;;28.00;15.70;;;;;;;-144.26;100.00;64884.69;5033842;28;20151;-81
2024/01/27 09:35:29;;;;;;;24.05;13.88;;;;;;;-144.26;100.00;64884.69;5052133;28;20025;-81
2024/01/27 09:37:54;;;;;;;27.10;14.38;;;;;;;-144.26;100.00;64884.69;5052893;28;20025;-81
2024/01/27 09:40:22;;;;;;;24.92;14.25;;;;;;;-144.26;100.00;64884.69;5055571;28;20047;-81
2024/01/27 09:42:58;;;;;;;25.33;14.65;;;;;;;-144.26;100.00;64884.69;5055277;28;20029;-86
2024/01/27 09:45:23;;;;;;;23.65;13.38;;;;;;;-144.26;100.00;64884.69;5055417;28;20036;-79
2024/01/27 09:47:51;;;;;;;31.52;12.93;;;;;;;-144.26;100.00;64884.69;5055321;28;20029;-79
2024/01/27 09:50:18;;;;;;;23.90;13.10;;;;;;;-144.26;100.00;64884.69;5055362;28;20028;-79
2024/01/27 09:52:44;;;;;;;31.17;12.93;;;;;;;-144.26;100.00;64884.69;5054925;28;20256;-79
2024/01/27 09:55:10;;;;;;;23.88;12.95;;;;;;;-144.26;100.00;64884.69;5055291;28;20108;-80
2024/01/27 09:57:38;;;;;;;25.73;13.23;;;;;;;-144.26;100.00;64884.69;5054692;28;20071;-81
2024/01/27 10:00:16;;;;;;;24.40;12.38;;;;;;;-144.26;100.00;64884.69;5055096;28;20036;-79
2024/01/27 10:02:42;;;;;;;26.17;13.80;;;;;;;-144.26;100.00;64884.69;5055166;28;20473;-80
2024/01/27 10:05:09;;;;;;;26.90;13.85;;;;;;;-144.26;100.00;64884.69;5054892;28;20071;-80
2024/01/27 10:07:34;;;;;;;27.23;13.77;;;;;;;-144.26;100.00;64884.69;5055059;28;20029;-80
2024/01/27 10:10:04;;;;;;;28.63;13.25;;;;;;;-144.26;100.00;64884.69;5126365;23;20049;-80
2024/01/27 10:12:31;;;;;;;23.25;12.88;;;;;;;-144.26;100.00;64884.69;5034817;28;20464;-80
2024/01/27 10:14:56;;;;;;;26.30;13.52;;;;;;;-144.26;100.00;64884.69;5035234;28;20057;-78
2024/01/27 10:17:29;;;;;;;32.35;12.43;;;;;;;-144.26;100.00;64884.69;5035056;28;20068;-79
2024/01/27 10:20:05;;;;;;;21.80;11.88;;;;;;;-144.26;100.00;64884.69;5034997;28;20462;-80
2024/01/27 10:22:44;;;;;;;24.13;12.07;;;;;;;-144.26;100.00;64884.69;5034332;28;20037;-79
2024/01/27 10:25:10;;;;;;;24.38;11.90;;;;;;;-144.26;100.00;64884.69;5016938;28;20393;-78
2024/01/27 10:27:38;;;;;;;22.80;11.65;;;;;;;-144.26;100.00;64884.69;5034757;28;20030;-81
2024/01/27 10:30:05;;;;;;;21.75;11.93;;;;;;;-144.26;100.00;64884.69;5034960;28;20029;-80
2024/01/27 10:32:31;;;;;;;21.75;12.30;;;;;;;-144.26;100.00;64884.69;5033671;28;20024;-80
2024/01/27 10:35:03;;;;;;;24.88;11.45;;;;;;;-144.26;100.00;64884.69;5035196;28;20112;-83
2024/01/27 10:37:28;;;;;;;23.90;11.35;;;;;;;-144.26;100.00;64884.69;5034697;28;20026;-79
2024/01/27 10:42:19;;;;;;;24.73;11.77;;;;;;;-144.26;100.00;64884.69;5387482;23;20060;-79
2024/01/27 10:44:45;;;;;;;20.10;11.68;;;;;;;-144.26;100.00;64884.69;5054226;28;20592;-77
2024/01/27 10:47:18;;;;;;;23.00;11.18;;;;;;;-144.26;100.00;64884.69;5054078;28;20029;-77
2024/01/27 10:49:45;;;;;;;24.00;11.13;;;;;;;-144.26;100.00;64884.69;5053192;28;20388;-75
2024/01/27 10:52:14;;;;;;;21.10;11.57;;;;;;;-144.26;100.00;64884.69;5053780;28;20067;-76
2024/01/27 10:54:42;;;;;;;21.75;10.40;;;;;;;-144.26;100.00;64884.69;5054072;28;20028;-78
2024/01/27 10:57:09;;;;;;;22.50;10.40;;;;;;;-144.26;100.00;64884.69;5054092;28;20025;-76
2024/01/27 10:59:35;;;;;;;22.20;10.20;;;;;;;-144.26;100.00;64884.69;5053959;28;20476;-79
2024/01/27 11:02:02;;;;;;;22.80;10.32;;;;;;;-144.26;100.00;64884.69;5053862;28;20043;-78
2024/01/27 11:04:28;;;;;;;21.65;9.63;;;;;;;-144.26;100.00;64884.69;5054080;28;20366;-78
2024/01/27 11:06:56;;;;;;;25.55;10.60;;;;;;;-144.26;100.00;64884.69;5053650;28;20143;-79
2024/01/27 11:09:22;;;;;;;20.40;9.63;;;;;;;-144.26;100.00;64884.69;5053903;28;20020;-74